sensor_id;sensor_type;location;lat;lon;timestamp;pressure;altitude;pressure_sealevel;temperature;humidity
5812;BME280;2932;52.400;9.558;2023-01-29T00:01:05;102222.19;;;4.59;66.77
5812;BME280;2932;52.400;9.558;2023-01-29T00:03:30;102225.75;;;4.59;66.68
5812;BME280;2932;52.400;9.558;2023-01-29T00:05:56;102214.91;;;4.32;67.32
5812;BME280;2932;52.400;9.558;2023-01-29T00:08:21;102217.19;;;4.51;67.66
5812;BME280;2932;52.400;9.558;2023-01-29T00:10:46;102208.72;;;4.52;66.85
5812;BME280;2932;52.400;9.558;2023-01-29T00:13:12;102219.41;;;4.54;67.17
5812;BME280;2932;52.400;9.558;2023-01-29T00:15:38;102207.13;;;4.61;67.13
5812;BME280;2932;52.400;9.558;2023-01-29T00:18:03;102212.78;;;4.45;67.15
5812;BME280;2932;52.400;9.558;2023-01-29T00:20:29;102210.31;;;4.38;67.18
5812;BME280;2932;52.400;9.558;2023-01-29T00:22:55;102205.69;;;4.49;67.00
5812;BME280;2932;52.400;9.558;2023-01-29T00:25:20;102201.19;;;4.27;67.06
5812;BME280;2932;52.400;9.558;2023-01-29T00:27:45;102198.78;;;4.36;67.45
5812;BME280;2932;52.400;9.558;2023-01-29T00:30:11;102194.16;;;4.47;67.46
5812;BME280;2932;52.400;9.558;2023-01-29T00:32:38;102195.84;;;4.06;68.03
5812;BME280;2932;52.400;9.558;2023-01-29T00:35:05;102193.03;;;4.43;67.80
5812;BME280;2932;52.400;9.558;2023-01-29T00:37:30;102196.06;;;4.46;67.57
5812;BME280;2932;52.400;9.558;2023-01-29T00:39:56;102192.38;;;4.20;67.93
5812;BME280;2932;52.400;9.558;2023-01-29T00:42:21;102195.66;;;4.17;68.34
5812;BME280;2932;52.400;9.558;2023-01-29T00:45:06;102194.41;;;3.93;68.65
5812;BME280;2932;52.400;9.558;2023-01-29T00:47:31;102206.06;;;4.20;68.88
5812;BME280;2932;52.400;9.558;2023-01-29T00:50:05;102204.97;;;4.21;68.62
5812;BME280;2932;52.400;9.558;2023-01-29T00:52:31;102194.06;;;4.26;68.47
5812;BME280;2932;52.400;9.558;2023-01-29T00:54:58;102202.84;;;4.28;68.52
5812;BME280;2932;52.400;9.558;2023-01-29T00:57:25;102209.53;;;4.53;67.93
5812;BME280;2932;52.400;9.558;2023-01-29T00:59:51;102211.50;;;4.15;68.69
5812;BME280;2932;52.400;9.558;2023-01-29T01:02:17;102205.09;;;4.42;68.23
5812;BME280;2932;52.400;9.558;2023-01-29T01:05:01;102199.78;;;4.20;68.76
5812;BME280;2932;52.400;9.558;2023-01-29T01:07:27;102194.13;;;4.42;68.36
5812;BME280;2932;52.400;9.558;2023-01-29T01:09:53;102186.88;;;4.15;68.82
5812;BME280;2932;52.400;9.558;2023-01-29T01:12:36;102178.91;;;4.14;69.07
5812;BME280;2932;52.400;9.558;2023-01-29T01:15:02;102181.63;;;4.09;69.28
5812;BME280;2932;52.400;9.558;2023-01-29T01:17:27;102183.78;;;4.07;69.65
5812;BME280;2932;52.400;9.558;2023-01-29T01:19:52;102183.50;;;4.03;69.98
5812;BME280;2932;52.400;9.558;2023-01-29T01:22:18;102179.78;;;4.19;69.44
5812;BME280;2932;52.400;9.558;2023-01-29T01:24:43;102168.19;;;4.07;69.24
5812;BME280;2932;52.400;9.558;2023-01-29T01:27:08;102155.69;;;3.79;69.78
5812;BME280;2932;52.400;9.558;2023-01-29T01:29:34;102172.41;;;3.83;70.64
5812;BME280;2932;52.400;9.558;2023-01-29T01:32:00;102168.41;;;3.95;70.40
5812;BME280;2932;52.400;9.558;2023-01-29T01:34:25;102163.53;;;4.08;70.00
5812;BME280;2932;52.400;9.558;2023-01-29T01:36:52;102157.03;;;3.77;70.52
5812;BME280;2932;52.400;9.558;2023-01-29T01:39:18;102155.16;;;4.24;70.06
5812;BME280;2932;52.400;9.558;2023-01-29T01:41:43;102155.84;;;4.05;70.48
5812;BME280;2932;52.400;9.558;2023-01-29T01:47:12;102148.16;;;4.01;70.42
5812;BME280;2932;52.400;9.558;2023-01-29T01:49:37;102157.34;;;3.80;70.12
5812;BME280;2932;52.400;9.558;2023-01-29T01:52:03;102143.09;;;3.78;70.99
5812;BME280;2932;52.400;9.558;2023-01-29T01:54:30;102150.06;;;3.96;70.24
5812;BME280;2932;52.400;9.558;2023-01-29T01:56:59;102146.66;;;3.79;70.06
5812;BME280;2932;52.400;9.558;2023-01-29T01:59:37;102149.78;;;3.60;70.27
5812;BME280;2932;52.400;9.558;2023-01-29T02:02:04;102144.00;;;3.89;70.19
5812;BME280;2932;52.400;9.558;2023-01-29T02:04:49;102144.47;;;3.81;70.56
5812;BME280;2932;52.400;9.558;2023-01-29T02:07:33;102149.47;;;3.89;70.38
5812;BME280;2932;52.400;9.558;2023-01-29T02:10:19;102160.13;;;3.85;69.75
5812;BME280;2932;52.400;9.558;2023-01-29T02:12:46;102168.59;;;3.84;69.94
5812;BME280;2932;52.400;9.558;2023-01-29T02:15:12;102169.16;;;3.86;69.32
5812;BME280;2932;52.400;9.558;2023-01-29T02:17:37;102170.16;;;3.75;69.34
5812;BME280;2932;52.400;9.558;2023-01-29T02:20:26;102171.88;;;3.49;70.03
5812;BME280;2932;52.400;9.558;2023-01-29T02:34:39;102185.41;;;3.97;68.73
5812;BME280;2932;52.400;9.558;2023-01-29T02:37:35;102194.59;;;3.81;69.18
5812;BME280;2932;52.400;9.558;2023-01-29T02:40:26;102199.03;;;3.55;69.46
5812;BME280;2932;52.400;9.558;2023-01-29T02:45:52;102199.03;;;3.60;69.30
5812;BME280;2932;52.400;9.558;2023-01-29T02:48:22;102194.13;;;3.94;69.01
5812;BME280;2932;52.400;9.558;2023-01-29T02:51:05;102191.44;;;3.67;69.00
5812;BME280;2932;52.400;9.558;2023-01-29T02:53:39;102203.22;;;4.05;68.88
5812;BME280;2932;52.400;9.558;2023-01-29T03:01:27;102185.50;;;3.76;68.58
5812;BME280;2932;52.400;9.558;2023-01-29T03:03:59;102183.41;;;3.88;68.79
5812;BME280;2932;52.400;9.558;2023-01-29T03:06:37;102171.28;;;3.79;68.53
5812;BME280;2932;52.400;9.558;2023-01-29T03:09:41;102180.16;;;4.38;67.86
5812;BME280;2932;52.400;9.558;2023-01-29T03:12:13;102173.50;;;4.24;67.73
5812;BME280;2932;52.400;9.558;2023-01-29T03:14:54;102176.56;;;4.32;67.45
5812;BME280;2932;52.400;9.558;2023-01-29T03:17:43;102166.47;;;3.91;68.69
5812;BME280;2932;52.400;9.558;2023-01-29T03:20:13;102165.41;;;4.02;68.63
5812;BME280;2932;52.400;9.558;2023-01-29T03:22:43;102165.53;;;4.22;68.18
5812;BME280;2932;52.400;9.558;2023-01-29T03:25:12;102153.78;;;3.80;68.38
5812;BME280;2932;52.400;9.558;2023-01-29T03:27:59;102153.44;;;3.71;68.96
5812;BME280;2932;52.400;9.558;2023-01-29T03:30:53;102149.16;;;3.48;68.97
5812;BME280;2932;52.400;9.558;2023-01-29T03:33:48;102150.63;;;3.61;69.04
5812;BME280;2932;52.400;9.558;2023-01-29T03:39:16;102157.13;;;3.50;69.37
5812;BME280;2932;52.400;9.558;2023-01-29T03:42:21;102157.75;;;4.04;68.68
5812;BME280;2932;52.400;9.558;2023-01-29T03:45:30;102149.66;;;4.24;68.18
5812;BME280;2932;52.400;9.558;2023-01-29T03:51:10;102141.44;;;4.24;67.55
5812;BME280;2932;52.400;9.558;2023-01-29T03:56:18;102129.84;;;4.07;68.07
5812;BME280;2932;52.400;9.558;2023-01-29T03:58:58;102132.50;;;3.92;67.81
5812;BME280;2932;52.400;9.558;2023-01-29T04:01:29;102128.13;;;3.91;68.00
5812;BME280;2932;52.400;9.558;2023-01-29T04:06:31;102117.97;;;3.86;67.47
5812;BME280;2932;52.400;9.558;2023-01-29T04:09:03;102108.44;;;3.94;67.67
5812;BME280;2932;52.400;9.558;2023-01-29T04:11:30;102110.13;;;4.05;67.44
5812;BME280;2932;52.400;9.558;2023-01-29T04:13:57;102106.19;;;3.86;67.67
5812;BME280;2932;52.400;9.558;2023-01-29T04:16:28;102107.66;;;4.09;67.33
5812;BME280;2932;52.400;9.558;2023-01-29T04:18:56;102097.63;;;4.24;67.00
5812;BME280;2932;52.400;9.558;2023-01-29T04:21:21;102089.38;;;4.19;66.68
5812;BME280;2932;52.400;9.558;2023-01-29T04:23:47;102077.25;;;4.05;66.56
5812;BME280;2932;52.400;9.558;2023-01-29T04:26:30;102070.09;;;3.94;66.98
5812;BME280;2932;52.400;9.558;2023-01-29T04:43:07;102050.72;;;4.11;66.89
5812;BME280;2932;52.400;9.558;2023-01-29T04:54:11;102061.47;;;4.22;67.50
5812;BME280;2932;52.400;9.558;2023-01-29T04:56:51;102054.31;;;4.21;67.55
5812;BME280;2932;52.400;9.558;2023-01-29T04:59:25;102058.22;;;4.35;66.93
5812;BME280;2932;52.400;9.558;2023-01-29T05:01:53;102047.00;;;4.47;66.36
5812;BME280;2932;52.400;9.558;2023-01-29T05:04:19;102042.25;;;4.17;67.38
5812;BME280;2932;52.400;9.558;2023-01-29T05:06:45;102038.03;;;3.84;67.65
5812;BME280;2932;52.400;9.558;2023-01-29T05:09:13;102036.69;;;3.92;67.99
5812;BME280;2932;52.400;9.558;2023-01-29T05:11:41;102041.28;;;3.81;67.74
5812;BME280;2932;52.400;9.558;2023-01-29T05:14:10;102031.22;;;3.92;67.36
5812;BME280;2932;52.400;9.558;2023-01-29T05:16:45;102033.66;;;3.88;67.03
5812;BME280;2932;52.400;9.558;2023-01-29T05:19:13;102035.31;;;3.89;67.48
5812;BME280;2932;52.400;9.558;2023-01-29T05:21:42;102037.00;;;4.06;66.98
5812;BME280;2932;52.400;9.558;2023-01-29T05:26:39;102037.78;;;3.91;66.99
5812;BME280;2932;52.400;9.558;2023-01-29T05:29:23;102031.78;;;4.04;66.91
5812;BME280;2932;52.400;9.558;2023-01-29T05:31:48;102047.69;;;4.07;66.30
5812;BME280;2932;52.400;9.558;2023-01-29T05:34:14;102043.84;;;3.98;67.11
5812;BME280;2932;52.400;9.558;2023-01-29T05:36:39;102052.19;;;4.44;66.60
5812;BME280;2932;52.400;9.558;2023-01-29T05:39:04;102047.97;;;4.06;66.61
5812;BME280;2932;52.400;9.558;2023-01-29T05:41:30;102055.97;;;4.22;66.44
5812;BME280;2932;52.400;9.558;2023-01-29T05:43:55;102057.38;;;4.40;66.22
5812;BME280;2932;52.400;9.558;2023-01-29T05:46:20;102051.69;;;4.52;65.66
5812;BME280;2932;52.400;9.558;2023-01-29T05:48:45;102054.38;;;4.42;65.45
5812;BME280;2932;52.400;9.558;2023-01-29T05:51:11;102046.72;;;4.49;65.70
5812;BME280;2932;52.400;9.558;2023-01-29T05:53:36;102055.00;;;4.69;65.66
5812;BME280;2932;52.400;9.558;2023-01-29T05:56:03;102058.78;;;4.38;65.77
5812;BME280;2932;52.400;9.558;2023-01-29T05:58:32;102068.59;;;4.28;66.16
5812;BME280;2932;52.400;9.558;2023-01-29T06:01:16;102062.94;;;4.55;66.02
5812;BME280;2932;52.400;9.558;2023-01-29T06:03:42;102064.50;;;4.41;66.03
5812;BME280;2932;52.400;9.558;2023-01-29T06:06:08;102068.72;;;4.74;65.70
5812;BME280;2932;52.400;9.558;2023-01-29T06:08:34;102070.81;;;4.42;66.29
5812;BME280;2932;52.400;9.558;2023-01-29T06:10:59;102067.19;;;4.16;66.87
5812;BME280;2932;52.400;9.558;2023-01-29T06:13:25;102079.31;;;4.35;66.99
5812;BME280;2932;52.400;9.558;2023-01-29T06:15:50;102078.81;;;3.86;67.67
5812;BME280;2932;52.400;9.558;2023-01-29T06:18:15;102059.72;;;4.01;67.44
5812;BME280;2932;52.400;9.558;2023-01-29T06:20:41;102050.66;;;3.90;68.16
5812;BME280;2932;52.400;9.558;2023-01-29T06:23:06;102045.78;;;4.08;68.02
5812;BME280;2932;52.400;9.558;2023-01-29T06:25:31;102061.44;;;4.17;68.16
5812;BME280;2932;52.400;9.558;2023-01-29T06:27:56;102069.56;;;3.97;68.74
5812;BME280;2932;52.400;9.558;2023-01-29T06:30:22;102065.53;;;4.15;68.48
5812;BME280;2932;52.400;9.558;2023-01-29T06:32:47;102055.09;;;4.07;68.35
5812;BME280;2932;52.400;9.558;2023-01-29T06:35:12;102065.25;;;4.11;68.47
5812;BME280;2932;52.400;9.558;2023-01-29T06:37:38;102064.50;;;4.31;67.76
5812;BME280;2932;52.400;9.558;2023-01-29T06:40:03;102066.84;;;4.02;68.62
5812;BME280;2932;52.400;9.558;2023-01-29T06:42:29;102066.41;;;4.25;68.32
5812;BME280;2932;52.400;9.558;2023-01-29T06:44:54;102059.88;;;4.37;68.32
5812;BME280;2932;52.400;9.558;2023-01-29T06:47:20;102063.25;;;4.69;67.71
5812;BME280;2932;52.400;9.558;2023-01-29T06:49:45;102064.63;;;3.94;68.63
5812;BME280;2932;52.400;9.558;2023-01-29T06:52:10;102052.09;;;4.13;68.30
5812;BME280;2932;52.400;9.558;2023-01-29T06:54:36;102056.75;;;4.13;68.48
5812;BME280;2932;52.400;9.558;2023-01-29T06:57:01;102072.09;;;4.14;68.50
5812;BME280;2932;52.400;9.558;2023-01-29T06:59:26;102090.28;;;4.35;67.98
5812;BME280;2932;52.400;9.558;2023-01-29T07:01:52;102087.13;;;4.06;68.40
5812;BME280;2932;52.400;9.558;2023-01-29T07:04:17;102093.31;;;4.39;68.29
5812;BME280;2932;52.400;9.558;2023-01-29T07:06:42;102099.94;;;4.63;67.70
5812;BME280;2932;52.400;9.558;2023-01-29T07:09:10;102103.50;;;4.63;67.58
5812;BME280;2932;52.400;9.558;2023-01-29T07:11:36;102104.19;;;4.23;68.56
5812;BME280;2932;52.400;9.558;2023-01-29T07:14:02;102094.28;;;4.12;68.86
5812;BME280;2932;52.400;9.558;2023-01-29T07:16:28;102099.09;;;4.52;68.19
5812;BME280;2932;52.400;9.558;2023-01-29T07:18:53;102096.66;;;4.66;68.33
5812;BME280;2932;52.400;9.558;2023-01-29T07:21:18;102091.00;;;4.15;70.08
5812;BME280;2932;52.400;9.558;2023-01-29T07:23:44;102099.53;;;4.24;70.27
5812;BME280;2932;52.400;9.558;2023-01-29T07:26:10;102085.75;;;4.09;70.08
5812;BME280;2932;52.400;9.558;2023-01-29T07:28:37;102067.13;;;4.06;70.84
5812;BME280;2932;52.400;9.558;2023-01-29T07:31:03;102069.66;;;4.22;70.48
5812;BME280;2932;52.400;9.558;2023-01-29T07:33:29;102064.84;;;4.60;69.99
5812;BME280;2932;52.400;9.558;2023-01-29T07:35:54;102060.53;;;5.05;68.83
5812;BME280;2932;52.400;9.558;2023-01-29T07:38:19;102057.69;;;4.39;69.97
5812;BME280;2932;52.400;9.558;2023-01-29T07:40:45;102056.50;;;4.19;71.76
5812;BME280;2932;52.400;9.558;2023-01-29T07:43:10;102046.84;;;3.96;72.47
5812;BME280;2932;52.400;9.558;2023-01-29T07:45:37;102059.59;;;4.43;74.51
5812;BME280;2932;52.400;9.558;2023-01-29T07:48:04;102051.22;;;4.02;73.33
5812;BME280;2932;52.400;9.558;2023-01-29T07:50:30;102059.09;;;3.84;73.60
5812;BME280;2932;52.400;9.558;2023-01-29T07:52:56;102051.47;;;3.91;73.97
5812;BME280;2932;52.400;9.558;2023-01-29T07:55:22;102043.47;;;4.62;73.07
5812;BME280;2932;52.400;9.558;2023-01-29T07:57:54;102018.28;;;4.70;72.02
5812;BME280;2932;52.400;9.558;2023-01-29T08:00:20;102015.53;;;4.70;71.68
5812;BME280;2932;52.400;9.558;2023-01-29T08:02:45;102009.25;;;4.95;71.40
5812;BME280;2932;52.400;9.558;2023-01-29T08:05:10;102014.94;;;4.32;72.50
5812;BME280;2932;52.400;9.558;2023-01-29T08:07:36;102003.16;;;3.69;74.44
5812;BME280;2932;52.400;9.558;2023-01-29T08:10:01;102019.59;;;4.37;73.82
5812;BME280;2932;52.400;9.558;2023-01-29T08:12:26;102020.13;;;4.44;73.25
5812;BME280;2932;52.400;9.558;2023-01-29T08:14:52;102019.03;;;4.30;73.33
5812;BME280;2932;52.400;9.558;2023-01-29T08:17:17;102027.00;;;4.37;73.66
5812;BME280;2932;52.400;9.558;2023-01-29T08:19:42;102014.00;;;3.96;73.77
5812;BME280;2932;52.400;9.558;2023-01-29T08:22:08;102021.25;;;4.48;73.48
5812;BME280;2932;52.400;9.558;2023-01-29T08:24:33;102012.19;;;4.32;73.77
5812;BME280;2932;52.400;9.558;2023-01-29T08:26:58;102014.91;;;4.27;73.46
5812;BME280;2932;52.400;9.558;2023-01-29T08:29:24;102018.03;;;4.77;72.95
5812;BME280;2932;52.400;9.558;2023-01-29T08:31:49;102009.72;;;4.36;72.70
5812;BME280;2932;52.400;9.558;2023-01-29T08:34:14;102015.19;;;4.31;73.49
5812;BME280;2932;52.400;9.558;2023-01-29T08:36:40;102017.41;;;4.39;73.48
5812;BME280;2932;52.400;9.558;2023-01-29T08:39:05;102015.22;;;4.51;73.05
5812;BME280;2932;52.400;9.558;2023-01-29T08:41:31;102022.69;;;4.96;72.62
5812;BME280;2932;52.400;9.558;2023-01-29T08:43:56;102010.34;;;4.74;72.43
5812;BME280;2932;52.400;9.558;2023-01-29T08:46:22;102007.84;;;4.87;71.95
5812;BME280;2932;52.400;9.558;2023-01-29T08:48:47;102001.22;;;4.43;72.95
5812;BME280;2932;52.400;9.558;2023-01-29T08:51:13;101999.09;;;4.85;72.54
5812;BME280;2932;52.400;9.558;2023-01-29T08:53:38;102000.72;;;4.56;72.16
5812;BME280;2932;52.400;9.558;2023-01-29T08:56:04;101993.34;;;4.77;72.01
5812;BME280;2932;52.400;9.558;2023-01-29T08:58:29;101984.28;;;4.66;72.14
5812;BME280;2932;52.400;9.558;2023-01-29T09:00:54;101992.22;;;4.93;71.46
5812;BME280;2932;52.400;9.558;2023-01-29T09:03:20;101992.47;;;4.46;71.71
5812;BME280;2932;52.400;9.558;2023-01-29T09:05:45;101994.72;;;4.69;71.81
5812;BME280;2932;52.400;9.558;2023-01-29T09:08:11;102002.09;;;4.99;71.92
5812;BME280;2932;52.400;9.558;2023-01-29T09:10:36;102002.66;;;4.91;71.67
5812;BME280;2932;52.400;9.558;2023-01-29T09:13:01;102001.31;;;4.78;71.07
5812;BME280;2932;52.400;9.558;2023-01-29T09:15:27;102001.25;;;4.58;72.04
5812;BME280;2932;52.400;9.558;2023-01-29T09:17:52;101986.06;;;4.05;73.54
5812;BME280;2932;52.400;9.558;2023-01-29T09:20:18;101985.38;;;4.60;72.80
5812;BME280;2932;52.400;9.558;2023-01-29T09:22:44;101986.75;;;4.62;72.61
5812;BME280;2932;52.400;9.558;2023-01-29T09:25:10;101971.66;;;4.50;72.87
5812;BME280;2932;52.400;9.558;2023-01-29T09:27:35;101962.31;;;4.41;72.72
5812;BME280;2932;52.400;9.558;2023-01-29T09:30:02;101974.97;;;4.97;71.50
5812;BME280;2932;52.400;9.558;2023-01-29T09:32:27;101968.94;;;4.70;71.90
5812;BME280;2932;52.400;9.558;2023-01-29T09:34:55;101964.00;;;4.67;72.36
5812;BME280;2932;52.400;9.558;2023-01-29T09:37:20;101967.84;;;4.76;72.58
5812;BME280;2932;52.400;9.558;2023-01-29T09:39:47;101970.84;;;5.10;71.03
5812;BME280;2932;52.400;9.558;2023-01-29T09:42:20;101953.03;;;4.97;70.76
5812;BME280;2932;52.400;9.558;2023-01-29T09:47:20;101958.22;;;4.94;71.51
5812;BME280;2932;52.400;9.558;2023-01-29T09:49:58;101962.59;;;5.15;70.64
5812;BME280;2932;52.400;9.558;2023-01-29T09:52:35;101958.25;;;4.74;70.94
5812;BME280;2932;52.400;9.558;2023-01-29T09:55:08;101970.56;;;4.91;71.36
5812;BME280;2932;52.400;9.558;2023-01-29T09:58:04;101964.53;;;5.05;70.39
5812;BME280;2932;52.400;9.558;2023-01-29T10:00:38;101960.97;;;4.89;70.54
5812;BME280;2932;52.400;9.558;2023-01-29T10:06:38;101945.91;;;4.61;71.61
5812;BME280;2932;52.400;9.558;2023-01-29T10:23:50;101945.06;;;4.96;70.45
5812;BME280;2932;52.400;9.558;2023-01-29T10:26:22;101943.69;;;4.43;71.45
5812;BME280;2932;52.400;9.558;2023-01-29T10:28:50;101941.78;;;4.43;71.31
5812;BME280;2932;52.400;9.558;2023-01-29T10:31:21;101958.53;;;4.77;71.17
5812;BME280;2932;52.400;9.558;2023-01-29T10:34:21;101953.84;;;4.67;70.78
5812;BME280;2932;52.400;9.558;2023-01-29T10:36:49;101959.63;;;4.71;70.79
5812;BME280;2932;52.400;9.558;2023-01-29T10:39:25;101948.63;;;4.86;70.55
5812;BME280;2932;52.400;9.558;2023-01-29T10:42:14;101948.63;;;4.91;69.98
5812;BME280;2932;52.400;9.558;2023-01-29T10:53:24;101922.31;;;4.50;70.66
5812;BME280;2932;52.400;9.558;2023-01-29T10:58:48;101911.88;;;4.97;69.36
5812;BME280;2932;52.400;9.558;2023-01-29T11:01:15;101907.47;;;5.12;69.93
5812;BME280;2932;52.400;9.558;2023-01-29T11:03:40;101908.63;;;4.70;69.80
5812;BME280;2932;52.400;9.558;2023-01-29T11:06:22;101889.72;;;4.58;70.27
5812;BME280;2932;52.400;9.558;2023-01-29T11:11:51;101889.41;;;4.85;70.14
5812;BME280;2932;52.400;9.558;2023-01-29T11:14:32;101894.34;;;4.83;70.00
5812;BME280;2932;52.400;9.558;2023-01-29T11:17:02;101890.81;;;4.52;70.76
5812;BME280;2932;52.400;9.558;2023-01-29T11:19:43;101880.50;;;5.34;68.82
5812;BME280;2932;52.400;9.558;2023-01-29T11:22:14;101872.84;;;5.21;68.96
5812;BME280;2932;52.400;9.558;2023-01-29T11:24:40;101868.97;;;5.32;68.54
5812;BME280;2932;52.400;9.558;2023-01-29T11:27:23;101862.84;;;4.65;69.59
5812;BME280;2932;52.400;9.558;2023-01-29T11:29:52;101860.84;;;5.07;69.10
5812;BME280;2932;52.400;9.558;2023-01-29T11:39:59;101851.84;;;4.81;69.42
5812;BME280;2932;52.400;9.558;2023-01-29T11:42:29;101854.84;;;4.89;68.92
5812;BME280;2932;52.400;9.558;2023-01-29T11:44:55;101854.59;;;4.81;69.36
5812;BME280;2932;52.400;9.558;2023-01-29T11:47:25;101846.66;;;4.79;69.21
5812;BME280;2932;52.400;9.558;2023-01-29T11:50:01;101846.00;;;5.18;68.78
5812;BME280;2932;52.400;9.558;2023-01-29T11:52:35;101829.94;;;4.76;68.86
5812;BME280;2932;52.400;9.558;2023-01-29T11:55:24;101831.59;;;4.72;69.45
5812;BME280;2932;52.400;9.558;2023-01-29T11:58:00;101829.59;;;4.97;69.02
5812;BME280;2932;52.400;9.558;2023-01-29T12:00:30;101824.69;;;4.94;68.98
5812;BME280;2932;52.400;9.558;2023-01-29T12:05:26;101808.84;;;5.41;68.07
5812;BME280;2932;52.400;9.558;2023-01-29T12:07:53;101805.47;;;4.99;69.02
5812;BME280;2932;52.400;9.558;2023-01-29T12:10:40;101793.97;;;4.87;69.19
5812;BME280;2932;52.400;9.558;2023-01-29T12:15:38;101784.78;;;5.22;68.18
5812;BME280;2932;52.400;9.558;2023-01-29T12:31:27;101775.81;;;5.12;68.55
5812;BME280;2932;52.400;9.558;2023-01-29T12:36:35;101765.50;;;5.38;67.51
5812;BME280;2932;52.400;9.558;2023-01-29T12:39:02;101762.28;;;5.25;67.66
5812;BME280;2932;52.400;9.558;2023-01-29T12:41:37;101770.75;;;5.29;67.78
5812;BME280;2932;52.400;9.558;2023-01-29T12:47:52;101761.34;;;4.86;68.47
5812;BME280;2932;52.400;9.558;2023-01-29T12:50:42;101751.75;;;5.43;67.97
5812;BME280;2932;52.400;9.558;2023-01-29T12:53:22;101759.41;;;5.51;67.49
5812;BME280;2932;52.400;9.558;2023-01-29T12:55:53;101752.59;;;5.43;67.61
5812;BME280;2932;52.400;9.558;2023-01-29T12:58:23;101746.84;;;5.40;67.87
5812;BME280;2932;52.400;9.558;2023-01-29T13:01:16;101748.97;;;5.03;68.06
5812;BME280;2932;52.400;9.558;2023-01-29T13:04:05;101746.72;;;5.16;68.13
5812;BME280;2932;52.400;9.558;2023-01-29T13:06:40;101745.47;;;5.42;67.93
5812;BME280;2932;52.400;9.558;2023-01-29T13:09:14;101744.16;;;5.68;67.36
5812;BME280;2932;52.400;9.558;2023-01-29T13:11:44;101739.66;;;5.49;67.60
5812;BME280;2932;52.400;9.558;2023-01-29T13:14:25;101720.59;;;5.23;67.93
5812;BME280;2932;52.400;9.558;2023-01-29T13:17:12;101716.81;;;5.58;67.83
5812;BME280;2932;52.400;9.558;2023-01-29T13:19:46;101712.31;;;5.28;68.36
5812;BME280;2932;52.400;9.558;2023-01-29T13:22:27;101699.59;;;5.03;68.83
5812;BME280;2932;52.400;9.558;2023-01-29T13:24:56;101713.19;;;5.24;68.58
5812;BME280;2932;52.400;9.558;2023-01-29T13:27:27;101700.69;;;5.02;68.79
5812;BME280;2932;52.400;9.558;2023-01-29T13:29:54;101703.91;;;5.20;68.06
5812;BME280;2932;52.400;9.558;2023-01-29T13:32:28;101700.63;;;5.57;68.24
5812;BME280;2932;52.400;9.558;2023-01-29T13:34:57;101691.28;;;5.19;69.01
5812;BME280;2932;52.400;9.558;2023-01-29T13:37:32;101688.56;;;5.53;68.41
5812;BME280;2932;52.400;9.558;2023-01-29T13:40:00;101689.78;;;4.87;69.61
5812;BME280;2932;52.400;9.558;2023-01-29T13:42:42;101679.09;;;4.86;69.72
5812;BME280;2932;52.400;9.558;2023-01-29T13:45:34;101684.00;;;4.94;69.82
5812;BME280;2932;52.400;9.558;2023-01-29T13:48:27;101676.59;;;4.94;70.21
5812;BME280;2932;52.400;9.558;2023-01-29T13:50:55;101671.53;;;5.56;68.82
5812;BME280;2932;52.400;9.558;2023-01-29T13:53:27;101664.19;;;5.46;69.19
5812;BME280;2932;52.400;9.558;2023-01-29T13:58:57;101657.72;;;5.32;69.94
5812;BME280;2932;52.400;9.558;2023-01-29T14:02:01;101657.78;;;5.22;70.13
5812;BME280;2932;52.400;9.558;2023-01-29T14:04:29;101658.00;;;5.30;70.13
5812;BME280;2932;52.400;9.558;2023-01-29T14:06:56;101653.53;;;5.00;70.80
5812;BME280;2932;52.400;9.558;2023-01-29T14:17:16;101640.88;;;5.78;69.69
5812;BME280;2932;52.400;9.558;2023-01-29T14:19:50;101652.88;;;5.19;71.33
5812;BME280;2932;52.400;9.558;2023-01-29T14:22:25;101638.31;;;5.57;70.76
5812;BME280;2932;52.400;9.558;2023-01-29T14:25:00;101635.19;;;4.96;71.69
5812;BME280;2932;52.400;9.558;2023-01-29T14:27:27;101625.88;;;4.92;73.70
5812;BME280;2932;52.400;9.558;2023-01-29T14:30:07;101632.94;;;5.03;73.56
5812;BME280;2932;52.400;9.558;2023-01-29T14:32:37;101636.72;;;5.17;72.78
5812;BME280;2932;52.400;9.558;2023-01-29T14:35:17;101631.75;;;5.53;72.24
5812;BME280;2932;52.400;9.558;2023-01-29T14:37:46;101634.34;;;5.40;71.69
5812;BME280;2932;52.400;9.558;2023-01-29T14:43:24;101630.75;;;5.05;73.70
5812;BME280;2932;52.400;9.558;2023-01-29T14:45:48;101626.13;;;4.95;74.11
5812;BME280;2932;52.400;9.558;2023-01-29T14:48:37;101620.69;;;5.29;73.23
5812;BME280;2932;52.400;9.558;2023-01-29T14:51:11;101620.25;;;5.17;74.04
5812;BME280;2932;52.400;9.558;2023-01-29T14:53:51;101622.31;;;5.30;73.28
5812;BME280;2932;52.400;9.558;2023-01-29T14:59:12;101622.81;;;4.54;74.99
5812;BME280;2932;52.400;9.558;2023-01-29T15:01:46;101619.72;;;4.71;75.24
5812;BME280;2932;52.400;9.558;2023-01-29T15:04:21;101607.28;;;4.34;75.86
5812;BME280;2932;52.400;9.558;2023-01-29T15:09:49;101610.47;;;5.01;74.39
5812;BME280;2932;52.400;9.558;2023-01-29T15:15:01;101609.34;;;4.58;74.30
5812;BME280;2932;52.400;9.558;2023-01-29T15:17:35;101615.72;;;4.43;75.07
5812;BME280;2932;52.400;9.558;2023-01-29T15:20:24;101617.84;;;4.61;74.81
5812;BME280;2932;52.400;9.558;2023-01-29T15:22:50;101610.53;;;4.42;74.94
5812;BME280;2932;52.400;9.558;2023-01-29T15:25:15;101612.63;;;4.65;74.98
5812;BME280;2932;52.400;9.558;2023-01-29T15:27:43;101601.03;;;4.78;74.12
5812;BME280;2932;52.400;9.558;2023-01-29T15:30:22;101602.22;;;4.62;74.18
5812;BME280;2932;52.400;9.558;2023-01-29T15:32:50;101612.59;;;4.70;73.07
5812;BME280;2932;52.400;9.558;2023-01-29T15:35:28;101599.88;;;4.84;72.89
5812;BME280;2932;52.400;9.558;2023-01-29T15:38:18;101591.84;;;4.98;73.10
5812;BME280;2932;52.400;9.558;2023-01-29T15:43:19;101576.69;;;4.72;73.47
5812;BME280;2932;52.400;9.558;2023-01-29T15:45:47;101575.59;;;4.67;73.49
5812;BME280;2932;52.400;9.558;2023-01-29T15:48:16;101608.13;;;4.30;74.05
5812;BME280;2932;52.400;9.558;2023-01-29T15:50:43;101568.53;;;4.56;74.29
5812;BME280;2932;52.400;9.558;2023-01-29T15:53:20;101571.69;;;4.79;73.95
5812;BME280;2932;52.400;9.558;2023-01-29T15:55:47;101573.81;;;4.43;74.26
5812;BME280;2932;52.400;9.558;2023-01-29T15:58:23;101570.09;;;4.73;74.09
5812;BME280;2932;52.400;9.558;2023-01-29T16:00:53;101558.16;;;4.48;74.03
5812;BME280;2932;52.400;9.558;2023-01-29T16:03:21;101563.00;;;5.06;73.45
5812;BME280;2932;52.400;9.558;2023-01-29T16:05:47;101557.53;;;4.66;74.21
5812;BME280;2932;52.400;9.558;2023-01-29T16:08:14;101549.69;;;4.45;74.09
5812;BME280;2932;52.400;9.558;2023-01-29T16:10:40;101567.19;;;4.54;73.74
5812;BME280;2932;52.400;9.558;2023-01-29T16:13:14;101543.53;;;4.68;73.87